sensor_id;sensor_type;location;lat;lon;timestamp;pressure;altitude;pressure_sealevel;temperature;humidity
61618;BME280;47518;51.776;9.370;2023-02-12T00:01:10;102302.84;;;8.27;92.58
61618;BME280;47518;51.776;9.370;2023-02-12T00:03:37;102305.00;;;8.22;93.63
61618;BME280;47518;51.776;9.370;2023-02-12T00:06:02;102306.16;;;8.06;93.07
61618;BME280;47518;51.776;9.370;2023-02-12T00:08:28;102295.84;;;7.99;93.11
61618;BME280;47518;51.776;9.370;2023-02-12T00:10:53;102297.03;;;8.07;94.18
61618;BME280;47518;51.776;9.370;2023-02-12T00:13:19;102304.53;;;8.04;93.80
61618;BME280;47518;51.776;9.370;2023-02-12T00:15:44;102293.75;;;7.78;94.64
61618;BME280;47518;51.776;9.370;2023-02-12T00:18:10;102293.81;;;8.02;94.91
61618;BME280;47518;51.776;9.370;2023-02-12T00:20:36;102295.53;;;8.03;94.63
61618;BME280;47518;51.776;9.370;2023-02-12T00:23:02;102299.50;;;8.23;93.41
61618;BME280;47518;51.776;9.370;2023-02-12T00:25:27;102295.22;;;8.32;92.87
61618;BME280;47518;51.776;9.370;2023-02-12T00:27:52;102295.13;;;8.33;92.40
61618;BME280;47518;51.776;9.370;2023-02-12T00:30:17;102297.13;;;8.18;92.11
61618;BME280;47518;51.776;9.370;2023-02-12T00:32:44;102299.72;;;8.20;93.85
61618;BME280;47518;51.776;9.370;2023-02-12T00:35:09;102301.13;;;8.26;92.83
61618;BME280;47518;51.776;9.370;2023-02-12T00:37:35;102302.69;;;8.04;93.99
61618;BME280;47518;51.776;9.370;2023-02-12T00:40:00;102303.09;;;8.24;93.72
61618;BME280;47518;51.776;9.370;2023-02-12T00:42:25;102308.91;;;8.30;92.43
61618;BME280;47518;51.776;9.370;2023-02-12T00:44:51;102307.16;;;8.29;93.33
61618;BME280;47518;51.776;9.370;2023-02-12T00:47:16;102301.22;;;8.37;90.78
61618;BME280;47518;51.776;9.370;2023-02-12T00:49:41;102308.16;;;8.28;92.04
61618;BME280;47518;51.776;9.370;2023-02-12T00:52:07;102312.28;;;8.34;91.34
61618;BME280;47518;51.776;9.370;2023-02-12T00:54:32;102307.56;;;8.12;91.83
61618;BME280;47518;51.776;9.370;2023-02-12T00:56:58;102316.84;;;8.20;91.96
61618;BME280;47518;51.776;9.370;2023-02-12T00:59:24;102311.97;;;8.26;91.34
61618;BME280;47518;51.776;9.370;2023-02-12T01:01:50;102319.09;;;8.27;91.52
61618;BME280;47518;51.776;9.370;2023-02-12T01:04:16;102310.22;;;8.25;91.52
61618;BME280;47518;51.776;9.370;2023-02-12T01:06:42;102318.41;;;8.12;92.29
61618;BME280;47518;51.776;9.370;2023-02-12T01:09:07;102322.78;;;8.26;91.74
61618;BME280;47518;51.776;9.370;2023-02-12T01:11:33;102329.47;;;8.33;91.38
61618;BME280;47518;51.776;9.370;2023-02-12T01:13:58;102326.28;;;8.15;90.93
61618;BME280;47518;51.776;9.370;2023-02-12T01:16:24;102330.53;;;8.06;92.82
61618;BME280;47518;51.776;9.370;2023-02-12T01:18:51;102328.69;;;8.07;93.30
61618;BME280;47518;51.776;9.370;2023-02-12T01:21:21;102323.13;;;8.21;92.63
61618;BME280;47518;51.776;9.370;2023-02-12T01:23:47;102330.09;;;8.12;92.75
61618;BME280;47518;51.776;9.370;2023-02-12T01:26:14;102329.31;;;8.23;92.46
61618;BME280;47518;51.776;9.370;2023-02-12T01:28:42;102322.34;;;8.32;91.83
61618;BME280;47518;51.776;9.370;2023-02-12T01:31:10;102327.00;;;8.42;90.56
61618;BME280;47518;51.776;9.370;2023-02-12T01:33:36;102324.41;;;8.41;90.33
61618;BME280;47518;51.776;9.370;2023-02-12T01:36:01;102322.16;;;8.22;91.36
61618;BME280;47518;51.776;9.370;2023-02-12T01:38:27;102320.22;;;8.24;91.19
61618;BME280;47518;51.776;9.370;2023-02-12T01:40:52;102326.59;;;8.36;90.71
61618;BME280;47518;51.776;9.370;2023-02-12T01:43:17;102333.75;;;8.37;90.13
61618;BME280;47518;51.776;9.370;2023-02-12T01:45:47;102328.44;;;8.23;91.74
61618;BME280;47518;51.776;9.370;2023-02-12T01:48:14;102325.19;;;8.17;92.15
61618;BME280;47518;51.776;9.370;2023-02-12T01:50:42;102326.63;;;8.10;92.38
61618;BME280;47518;51.776;9.370;2023-02-12T01:53:08;102331.28;;;8.08;91.27
61618;BME280;47518;51.776;9.370;2023-02-12T01:55:34;102323.69;;;8.13;92.11
61618;BME280;47518;51.776;9.370;2023-02-12T01:57:59;102329.34;;;8.10;92.08
61618;BME280;47518;51.776;9.370;2023-02-12T02:00:25;102323.81;;;8.12;91.91
61618;BME280;47518;51.776;9.370;2023-02-12T02:02:55;102329.19;;;8.25;91.57
61618;BME280;47518;51.776;9.370;2023-02-12T02:05:30;102331.91;;;8.25;91.35
61618;BME280;47518;51.776;9.370;2023-02-12T02:07:58;102321.50;;;8.18;91.46
61618;BME280;47518;51.776;9.370;2023-02-12T02:10:23;102327.50;;;8.11;92.18
61618;BME280;47518;51.776;9.370;2023-02-12T02:12:48;102321.22;;;8.10;92.20
61618;BME280;47518;51.776;9.370;2023-02-12T02:15:35;102318.75;;;8.31;91.75
61618;BME280;47518;51.776;9.370;2023-02-12T02:18:12;102322.78;;;8.38;91.63
61618;BME280;47518;51.776;9.370;2023-02-12T02:47:11;102315.63;;;8.37;90.87
61618;BME280;47518;51.776;9.370;2023-02-12T02:49:43;102307.72;;;8.22;91.46
61618;BME280;47518;51.776;9.370;2023-02-12T02:52:16;102316.94;;;8.19;92.63
61618;BME280;47518;51.776;9.370;2023-02-12T02:54:45;102314.56;;;8.27;92.09
61618;BME280;47518;51.776;9.370;2023-02-12T03:10:23;102301.34;;;8.23;91.33
61618;BME280;47518;51.776;9.370;2023-02-12T03:12:55;102304.94;;;8.23;91.95
61618;BME280;47518;51.776;9.370;2023-02-12T03:15:36;102311.09;;;8.25;92.28
61618;BME280;47518;51.776;9.370;2023-02-12T03:18:06;102307.75;;;8.34;91.30
61618;BME280;47518;51.776;9.370;2023-02-12T03:20:36;102297.13;;;8.18;92.83
61618;BME280;47518;51.776;9.370;2023-02-12T03:23:09;102303.53;;;8.17;92.10
61618;BME280;47518;51.776;9.370;2023-02-12T03:25:42;102305.78;;;8.24;91.47
61618;BME280;47518;51.776;9.370;2023-02-12T03:28:15;102298.84;;;8.19;92.78
61618;BME280;47518;51.776;9.370;2023-02-12T03:30:48;102304.56;;;8.28;91.60
61618;BME280;47518;51.776;9.370;2023-02-12T03:33:27;102295.38;;;8.17;91.37
61618;BME280;47518;51.776;9.370;2023-02-12T03:36:01;102310.38;;;8.10;92.10
61618;BME280;47518;51.776;9.370;2023-02-12T03:56:51;102319.84;;;8.29;91.48
61618;BME280;47518;51.776;9.370;2023-02-12T03:59:19;102318.13;;;8.28;90.79
61618;BME280;47518;51.776;9.370;2023-02-12T04:01:45;102316.91;;;8.32;90.33
61618;BME280;47518;51.776;9.370;2023-02-12T04:04:11;102315.53;;;8.26;91.07
61618;BME280;47518;51.776;9.370;2023-02-12T04:06:37;102320.94;;;8.26;91.94
61618;BME280;47518;51.776;9.370;2023-02-12T04:09:06;102328.09;;;8.27;91.95
61618;BME280;47518;51.776;9.370;2023-02-12T04:38:25;102352.50;;;8.27;91.51
61618;BME280;47518;51.776;9.370;2023-02-12T04:40:51;102359.75;;;8.27;91.49
61618;BME280;47518;51.776;9.370;2023-02-12T04:43:34;102358.03;;;8.38;91.50
61618;BME280;47518;51.776;9.370;2023-02-12T04:46:01;102360.28;;;8.32;92.18
61618;BME280;47518;51.776;9.370;2023-02-12T04:48:26;102352.84;;;8.35;90.92
61618;BME280;47518;51.776;9.370;2023-02-12T04:50:52;102366.91;;;8.40;90.90
61618;BME280;47518;51.776;9.370;2023-02-12T04:53:17;102359.00;;;8.37;91.53
61618;BME280;47518;51.776;9.370;2023-02-12T04:55:43;102358.53;;;8.43;90.29
61618;BME280;47518;51.776;9.370;2023-02-12T04:58:08;102363.31;;;8.40;90.18
61618;BME280;47518;51.776;9.370;2023-02-12T05:00:34;102357.69;;;8.30;91.54
61618;BME280;47518;51.776;9.370;2023-02-12T05:02:59;102362.91;;;8.20;91.05
61618;BME280;47518;51.776;9.370;2023-02-12T05:05:25;102370.38;;;8.17;92.38
61618;BME280;47518;51.776;9.370;2023-02-12T05:07:50;102367.44;;;8.20;92.18
61618;BME280;47518;51.776;9.370;2023-02-12T05:10:16;102365.69;;;8.32;91.27
61618;BME280;47518;51.776;9.370;2023-02-12T05:12:41;102361.25;;;8.31;91.17
61618;BME280;47518;51.776;9.370;2023-02-12T05:15:07;102370.59;;;8.27;91.41
61618;BME280;47518;51.776;9.370;2023-02-12T05:17:33;102367.41;;;8.33;90.74
61618;BME280;47518;51.776;9.370;2023-02-12T05:19:58;102371.34;;;8.29;90.03
61618;BME280;47518;51.776;9.370;2023-02-12T05:22:24;102368.28;;;8.33;91.11
61618;BME280;47518;51.776;9.370;2023-02-12T05:24:49;102374.50;;;8.23;90.87
61618;BME280;47518;51.776;9.370;2023-02-12T05:27:14;102367.25;;;8.23;91.05
61618;BME280;47518;51.776;9.370;2023-02-12T05:29:40;102373.06;;;8.30;92.00
61618;BME280;47518;51.776;9.370;2023-02-12T05:32:05;102377.41;;;8.32;90.51
61618;BME280;47518;51.776;9.370;2023-02-12T05:34:32;102376.88;;;8.27;91.02
61618;BME280;47518;51.776;9.370;2023-02-12T05:36:58;102373.19;;;8.41;89.66
61618;BME280;47518;51.776;9.370;2023-02-12T05:39:23;102375.59;;;8.45;90.25
61618;BME280;47518;51.776;9.370;2023-02-12T05:41:48;102377.72;;;8.53;89.34
61618;BME280;47518;51.776;9.370;2023-02-12T05:44:13;102371.53;;;8.51;89.24
61618;BME280;47518;51.776;9.370;2023-02-12T05:46:39;102369.72;;;8.39;90.26
61618;BME280;47518;51.776;9.370;2023-02-12T05:49:05;102376.41;;;8.33;90.89
61618;BME280;47518;51.776;9.370;2023-02-12T05:51:31;102373.53;;;8.36;90.25
61618;BME280;47518;51.776;9.370;2023-02-12T05:53:59;102379.81;;;8.24;90.17
61618;BME280;47518;51.776;9.370;2023-02-12T05:56:27;102379.59;;;8.27;90.87
61618;BME280;47518;51.776;9.370;2023-02-12T05:58:57;102387.19;;;8.22;90.97
61618;BME280;47518;51.776;9.370;2023-02-12T06:01:27;102380.47;;;8.15;91.96
61618;BME280;47518;51.776;9.370;2023-02-12T06:03:53;102380.44;;;8.28;91.83
61618;BME280;47518;51.776;9.370;2023-02-12T06:06:19;102379.13;;;8.33;90.90
61618;BME280;47518;51.776;9.370;2023-02-12T06:08:47;102371.56;;;8.26;91.30
61618;BME280;47518;51.776;9.370;2023-02-12T06:38:29;102397.81;;;8.25;91.01
61618;BME280;47518;51.776;9.370;2023-02-12T06:40:54;102400.28;;;8.28;91.16
61618;BME280;47518;51.776;9.370;2023-02-12T06:43:19;102404.41;;;8.21;91.35
61618;BME280;47518;51.776;9.370;2023-02-12T06:45:45;102412.34;;;8.11;91.76
61618;BME280;47518;51.776;9.370;2023-02-12T06:48:10;102413.19;;;8.25;91.90
61618;BME280;47518;51.776;9.370;2023-02-12T06:50:35;102412.13;;;8.14;91.62
61618;BME280;47518;51.776;9.370;2023-02-12T06:53:00;102416.78;;;8.38;90.12
61618;BME280;47518;51.776;9.370;2023-02-12T06:55:26;102416.16;;;8.34;90.44
61618;BME280;47518;51.776;9.370;2023-02-12T06:57:51;102422.31;;;8.24;90.39
61618;BME280;47518;51.776;9.370;2023-02-12T07:00:17;102432.06;;;8.39;89.98
61618;BME280;47518;51.776;9.370;2023-02-12T07:02:42;102421.44;;;8.23;91.12
61618;BME280;47518;51.776;9.370;2023-02-12T07:05:08;102428.81;;;8.34;90.65
61618;BME280;47518;51.776;9.370;2023-02-12T07:07:34;102434.16;;;8.35;90.32
61618;BME280;47518;51.776;9.370;2023-02-12T07:09:59;102439.84;;;8.31;90.76
61618;BME280;47518;51.776;9.370;2023-02-12T07:12:25;102434.31;;;8.45;90.80
61618;BME280;47518;51.776;9.370;2023-02-12T07:14:50;102447.00;;;8.57;89.81
61618;BME280;47518;51.776;9.370;2023-02-12T07:17:15;102438.44;;;8.51;89.86
61618;BME280;47518;51.776;9.370;2023-02-12T07:19:40;102445.38;;;8.42;89.96
61618;BME280;47518;51.776;9.370;2023-02-12T07:22:06;102448.78;;;8.45;89.98
61618;BME280;47518;51.776;9.370;2023-02-12T07:24:31;102453.06;;;8.61;89.42
61618;BME280;47518;51.776;9.370;2023-02-12T07:26:56;102446.47;;;8.52;89.64
61618;BME280;47518;51.776;9.370;2023-02-12T07:29:22;102447.88;;;8.45;90.69
61618;BME280;47518;51.776;9.370;2023-02-12T07:31:47;102448.84;;;8.44;90.68
61618;BME280;47518;51.776;9.370;2023-02-12T07:34:12;102461.34;;;8.46;90.38
61618;BME280;47518;51.776;9.370;2023-02-12T07:36:38;102461.13;;;8.50;91.50
61618;BME280;47518;51.776;9.370;2023-02-12T07:39:04;102458.28;;;8.51;91.29
61618;BME280;47518;51.776;9.370;2023-02-12T07:41:31;102459.75;;;8.68;90.27
61618;BME280;47518;51.776;9.370;2023-02-12T07:43:59;102467.69;;;8.71;89.81
61618;BME280;47518;51.776;9.370;2023-02-12T07:46:30;102469.66;;;8.69;89.36
61618;BME280;47518;51.776;9.370;2023-02-12T07:48:58;102467.38;;;8.63;90.48
61618;BME280;47518;51.776;9.370;2023-02-12T07:51:23;102471.09;;;8.36;90.53
61618;BME280;47518;51.776;9.370;2023-02-12T07:53:49;102466.09;;;8.43;91.43
61618;BME280;47518;51.776;9.370;2023-02-12T07:56:19;102470.41;;;8.33;92.17
61618;BME280;47518;51.776;9.370;2023-02-12T07:58:46;102472.47;;;8.29;92.48
61618;BME280;47518;51.776;9.370;2023-02-12T08:01:16;102475.53;;;8.25;91.20
61618;BME280;47518;51.776;9.370;2023-02-12T08:03:41;102477.34;;;7.99;93.92
61618;BME280;47518;51.776;9.370;2023-02-12T08:06:09;102482.00;;;7.97;94.10
61618;BME280;47518;51.776;9.370;2023-02-12T08:08:34;102478.34;;;8.23;92.01
61618;BME280;47518;51.776;9.370;2023-02-12T08:10:59;102481.47;;;8.30;92.18
61618;BME280;47518;51.776;9.370;2023-02-12T08:13:25;102480.19;;;8.23;91.91
61618;BME280;47518;51.776;9.370;2023-02-12T08:15:58;102483.53;;;8.13;92.86
61618;BME280;47518;51.776;9.370;2023-02-12T08:18:24;102479.97;;;8.26;92.06
61618;BME280;47518;51.776;9.370;2023-02-12T08:20:49;102479.44;;;8.46;91.60
61618;BME280;47518;51.776;9.370;2023-02-12T08:23:14;102487.13;;;8.14;91.68
61618;BME280;47518;51.776;9.370;2023-02-12T08:25:39;102472.16;;;8.34;91.99
61618;BME280;47518;51.776;9.370;2023-02-12T08:28:05;102476.41;;;8.51;91.05
61618;BME280;47518;51.776;9.370;2023-02-12T08:30:30;102486.50;;;8.48;89.52
61618;BME280;47518;51.776;9.370;2023-02-12T08:32:55;102478.34;;;8.23;90.56
61618;BME280;47518;51.776;9.370;2023-02-12T08:35:21;102489.00;;;8.39;89.92
61618;BME280;47518;51.776;9.370;2023-02-12T08:37:46;102490.19;;;8.35;90.32
61618;BME280;47518;51.776;9.370;2023-02-12T08:40:11;102486.03;;;8.29;89.91
61618;BME280;47518;51.776;9.370;2023-02-12T08:42:38;102487.22;;;8.25;89.79
61618;BME280;47518;51.776;9.370;2023-02-12T08:45:03;102492.53;;;8.27;90.05
61618;BME280;47518;51.776;9.370;2023-02-12T08:47:28;102491.59;;;8.40;90.28
61618;BME280;47518;51.776;9.370;2023-02-12T08:49:54;102499.34;;;8.19;91.42
61618;BME280;47518;51.776;9.370;2023-02-12T08:52:19;102500.88;;;8.24;89.68
61618;BME280;47518;51.776;9.370;2023-02-12T08:54:44;102510.22;;;8.45;88.96
61618;BME280;47518;51.776;9.370;2023-02-12T08:57:10;102511.31;;;8.42;88.68
61618;BME280;47518;51.776;9.370;2023-02-12T08:59:35;102510.41;;;8.29;89.03
61618;BME280;47518;51.776;9.370;2023-02-12T09:02:00;102512.13;;;7.92;90.60
61618;BME280;47518;51.776;9.370;2023-02-12T09:04:28;102514.38;;;7.98;91.21
61618;BME280;47518;51.776;9.370;2023-02-12T09:06:54;102509.31;;;8.06;91.58
61618;BME280;47518;51.776;9.370;2023-02-12T09:09:19;102509.09;;;8.09;91.89
61618;BME280;47518;51.776;9.370;2023-02-12T09:11:45;102506.31;;;8.11;91.28
61618;BME280;47518;51.776;9.370;2023-02-12T09:14:13;102508.56;;;8.17;91.39
61618;BME280;47518;51.776;9.370;2023-02-12T09:16:39;102512.78;;;7.96;91.41
61618;BME280;47518;51.776;9.370;2023-02-12T09:19:06;102514.63;;;7.95;92.25
61618;BME280;47518;51.776;9.370;2023-02-12T09:21:32;102515.25;;;7.99;91.74
61618;BME280;47518;51.776;9.370;2023-02-12T09:23:57;102517.22;;;8.09;91.98
61618;BME280;47518;51.776;9.370;2023-02-12T09:26:24;102520.84;;;8.23;91.74
61618;BME280;47518;51.776;9.370;2023-02-12T09:28:51;102517.06;;;8.38;90.00
61618;BME280;47518;51.776;9.370;2023-02-12T09:31:19;102515.44;;;8.35;90.28
61618;BME280;47518;51.776;9.370;2023-02-12T09:33:47;102520.16;;;8.19;90.83
61618;BME280;47518;51.776;9.370;2023-02-12T09:36:15;102518.22;;;8.72;88.57
61618;BME280;47518;51.776;9.370;2023-02-12T09:38:41;102518.78;;;8.52;88.25
61618;BME280;47518;51.776;9.370;2023-02-12T09:54:16;102525.28;;;8.74;86.77
61618;BME280;47518;51.776;9.370;2023-02-12T09:56:46;102533.09;;;8.66;87.69
61618;BME280;47518;51.776;9.370;2023-02-12T09:59:21;102535.22;;;8.87;86.31
61618;BME280;47518;51.776;9.370;2023-02-12T10:01:48;102531.84;;;8.96;85.81
61618;BME280;47518;51.776;9.370;2023-02-12T10:04:15;102523.97;;;8.67;87.23
61618;BME280;47518;51.776;9.370;2023-02-12T10:06:50;102526.69;;;8.67;87.57
61618;BME280;47518;51.776;9.370;2023-02-12T10:09:31;102527.25;;;8.47;88.07
61618;BME280;47518;51.776;9.370;2023-02-12T10:12:13;102524.03;;;8.91;86.95
61618;BME280;47518;51.776;9.370;2023-02-12T10:28:11;102523.88;;;8.56;88.11
61618;BME280;47518;51.776;9.370;2023-02-12T10:30:50;102523.09;;;8.80;86.09
61618;BME280;47518;51.776;9.370;2023-02-12T10:33:26;102514.16;;;8.90;85.78
61618;BME280;47518;51.776;9.370;2023-02-12T10:35:58;102527.13;;;8.74;86.90
61618;BME280;47518;51.776;9.370;2023-02-12T10:38:30;102530.22;;;9.06;84.17
61618;BME280;47518;51.776;9.370;2023-02-12T10:40:57;102527.13;;;9.11;85.39
61618;BME280;47518;51.776;9.370;2023-02-12T10:43:26;102535.66;;;9.30;84.55
61618;BME280;47518;51.776;9.370;2023-02-12T10:45:52;102530.84;;;9.10;84.37
61618;BME280;47518;51.776;9.370;2023-02-12T10:48:20;102539.16;;;8.83;85.42
61618;BME280;47518;51.776;9.370;2023-02-12T11:03:56;102536.03;;;8.63;86.79
61618;BME280;47518;51.776;9.370;2023-02-12T11:06:30;102538.41;;;8.55;87.37
61618;BME280;47518;51.776;9.370;2023-02-12T11:08:56;102533.22;;;8.52;87.19
61618;BME280;47518;51.776;9.370;2023-02-12T11:11:26;102529.84;;;8.61;86.62
61618;BME280;47518;51.776;9.370;2023-02-12T11:13:56;102533.19;;;8.65;86.56
61618;BME280;47518;51.776;9.370;2023-02-12T11:16:27;102531.34;;;8.14;88.93
61618;BME280;47518;51.776;9.370;2023-02-12T11:18:58;102530.88;;;8.33;87.71
61618;BME280;47518;51.776;9.370;2023-02-12T11:21:24;102529.63;;;8.52;87.58
61618;BME280;47518;51.776;9.370;2023-02-12T11:23:49;102530.84;;;8.47;88.03
61618;BME280;47518;51.776;9.370;2023-02-12T11:52:36;102512.84;;;9.32;83.04
61618;BME280;47518;51.776;9.370;2023-02-12T11:55:06;102515.97;;;9.39;83.20
61618;BME280;47518;51.776;9.370;2023-02-12T12:49:17;102482.06;;;9.21;87.99
61618;BME280;47518;51.776;9.370;2023-02-12T12:52:08;102481.13;;;9.09;87.91
61618;BME280;47518;51.776;9.370;2023-02-12T13:10:48;102473.34;;;9.04;88.18
61618;BME280;47518;51.776;9.370;2023-02-12T13:13:35;102478.47;;;8.96;88.30
61618;BME280;47518;51.776;9.370;2023-02-12T13:31:48;102456.34;;;8.90;87.36
61618;BME280;47518;51.776;9.370;2023-02-12T13:34:16;102460.97;;;9.24;86.15
61618;BME280;47518;51.776;9.370;2023-02-12T13:36:43;102459.56;;;8.71;86.62
61618;BME280;47518;51.776;9.370;2023-02-12T13:39:28;102456.06;;;8.82;86.99
61618;BME280;47518;51.776;9.370;2023-02-12T13:42:21;102458.41;;;8.86;87.00
61618;BME280;47518;51.776;9.370;2023-02-12T13:45:16;102459.91;;;8.90;86.13
61618;BME280;47518;51.776;9.370;2023-02-12T14:11:20;102446.94;;;9.54;80.82
61618;BME280;47518;51.776;9.370;2023-02-12T14:14:02;102445.53;;;9.49;81.75
61618;BME280;47518;51.776;9.370;2023-02-12T14:32:53;102450.50;;;9.55;80.95
61618;BME280;47518;51.776;9.370;2023-02-12T14:51:15;102449.44;;;9.33;81.00
61618;BME280;47518;51.776;9.370;2023-02-12T14:53:43;102454.69;;;9.59;81.13
61618;BME280;47518;51.776;9.370;2023-02-12T14:56:10;102462.06;;;9.46;80.71
61618;BME280;47518;51.776;9.370;2023-02-12T14:58:36;102448.19;;;9.38;81.97
61618;BME280;47518;51.776;9.370;2023-02-12T15:01:03;102449.34;;;9.46;81.15
61618;BME280;47518;51.776;9.370;2023-02-12T15:03:39;102457.41;;;9.59;81.41
61618;BME280;47518;51.776;9.370;2023-02-12T15:06:32;102457.38;;;9.48;80.83
61618;BME280;47518;51.776;9.370;2023-02-12T15:09:07;102458.75;;;9.18;81.91
61618;BME280;47518;51.776;9.370;2023-02-12T15:24:43;102452.31;;;9.43;81.71
61618;BME280;47518;51.776;9.370;2023-02-12T15:27:12;102457.31;;;9.36;82.36
61618;BME280;47518;51.776;9.370;2023-02-12T15:29:42;102459.19;;;9.12;82.77
61618;BME280;47518;51.776;9.370;2023-02-12T15:32:15;102459.00;;;8.66;84.97
61618;BME280;47518;51.776;9.370;2023-02-12T15:34:42;102445.84;;;9.09;83.26
61618;BME280;47518;51.776;9.370;2023-02-12T15:37:18;102444.88;;;9.34;81.71
61618;BME280;47518;51.776;9.370;2023-02-12T15:39:45;102441.22;;;9.46;81.52
61618;BME280;47518;51.776;9.370;2023-02-12T15:42:32;102437.50;;;9.47;81.76
61618;BME280;47518;51.776;9.370;2023-02-12T15:45:16;102447.38;;;9.48;81.84
61618;BME280;47518;51.776;9.370;2023-02-12T15:47:42;102451.03;;;9.71;80.78
61618;BME280;47518;51.776;9.370;2023-02-12T15:50:12;102437.97;;;9.76;81.79
61618;BME280;47518;51.776;9.370;2023-02-12T15:52:40;102442.16;;;9.69;82.11
61618;BME280;47518;51.776;9.370;2023-02-12T15:55:13;102437.78;;;9.55;82.46
61618;BME280;47518;51.776;9.370;2023-02-12T15:57:39;102443.59;;;9.51;82.57
61618;BME280;47518;51.776;9.370;2023-02-12T16:00:40;102442.25;;;9.56;82.43
61618;BME280;47518;51.776;9.370;2023-02-12T16:03:30;102449.59;;;9.43;81.98
61618;BME280;47518;51.776;9.370;2023-02-12T16:06:12;102453.31;;;9.18;83.26
61618;BME280;47518;51.776;9.370;2023-02-12T16:08:43;102445.84;;;9.33;82.65
61618;BME280;47518;51.776;9.370;2023-02-12T16:11:10;102453.19;;;9.44;81.48
61618;BME280;47518;51.776;9.370;2023-02-12T16:13:43;102453.25;;;9.31;81.25
61618;BME280;47518;51.776;9.370;2023-02-12T16:29:17;102461.38;;;9.55;82.12
61618;BME280;47518;51.776;9.370;2023-02-12T16:32:01;102465.69;;;9.57;82.02
61618;BME280;47518;51.776;9.370;2023-02-12T16:34:29;102454.97;;;9.32;83.23
61618;BME280;47518;51.776;9.370;2023-02-12T16:36:55;102463.59;;;9.50;81.96
61618;BME280;47518;51.776;9.370;2023-02-12T16:53:05;102472.31;;;9.18;83.48
61618;BME280;47518;51.776;9.370;2023-02-12T16:55:31;102474.28;;;9.16;83.17
61618;BME280;47518;51.776;9.370;2023-02-12T16:57:57;102473.56;;;9.25;83.18
61618;BME280;47518;51.776;9.370;2023-02-12T17:00:22;102484.97;;;9.30;84.04
61618;BME280;47518;51.776;9.370;2023-02-12T17:02:48;102482.47;;;9.03;84.53
61618;BME280;47518;51.776;9.370;2023-02-12T17:05:15;102480.38;;;9.07;84.86
61618;BME280;47518;51.776;9.370;2023-02-12T17:07:42;102471.31;;;9.19;84.08
61618;BME280;47518;51.776;9.370;2023-02-12T17:10:13;102473.16;;;9.19;84.56
61618;BME280;47518;51.776;9.370;2023-02-12T17:12:47;102479.59;;;9.18;83.72
61618;BME280;47518;51.776;9.370;2023-02-12T17:15:19;102479.41;;;9.08;84.11
61618;BME280;47518;51.776;9.370;2023-02-12T17:17:46;102488.88;;;8.90;85.17
61618;BME280;47518;51.776;9.370;2023-02-12T17:20:11;102480.03;;;8.75;86.48
61618;BME280;47518;51.776;9.370;2023-02-12T17:22:37;102479.47;;;8.83;86.16
61618;BME280;47518;51.776;9.370;2023-02-12T17:25:02;102489.19;;;8.98;86.05
61618;BME280;47518;51.776;9.370;2023-02-12T17:27:28;102489.75;;;9.03;85.69
61618;BME280;47518;51.776;9.370;2023-02-12T17:29:53;102484.00;;;8.95;86.02
61618;BME280;47518;51.776;9.370;2023-02-12T17:32:18;102489.06;;;8.99;86.43
61618;BME280;47518;51.776;9.370;2023-02-12T17:34:44;102492.03;;;8.96;85.34
61618;BME280;47518;51.776;9.370;2023-02-12T17:37:09;102491.72;;;8.88;86.82
61618;BME280;47518;51.776;9.370;2023-02-12T17:39:34;102499.97;;;8.87;86.76
61618;BME280;47518;51.776;9.370;2023-02-12T17:42:00;102493.56;;;8.88;86.84
61618;BME280;47518;51.776;9.370;2023-02-12T17:44:26;102505.72;;;8.95;86.78
61618;BME280;47518;51.776;9.370;2023-02-12T17:46:52;102500.94;;;8.86;86.35
61618;BME280;47518;51.776;9.370;2023-02-12T17:49:17;102503.66;;;8.86;86.66
61618;BME280;47518;51.776;9.370;2023-02-12T17:51:43;102511.59;;;8.76;87.52
61618;BME280;47518;51.776;9.370;2023-02-12T17:54:08;102507.94;;;8.64;87.04
61618;BME280;47518;51.776;9.370;2023-02-12T17:56:33;102510.19;;;8.83;87.33
61618;BME280;47518;51.776;9.370;2023-02-12T17:58:59;102501.31;;;8.68;86.83
61618;BME280;47518;51.776;9.370;2023-02-12T18:01:24;102515.06;;;8.78;87.51
61618;BME280;47518;51.776;9.370;2023-02-12T18:03:50;102508.56;;;8.81;87.56
61618;BME280;47518;51.776;9.370;2023-02-12T18:06:23;102514.94;;;8.80;87.33
61618;BME280;47518;51.776;9.370;2023-02-12T18:08:48;102506.88;;;8.91;86.52
61618;BME280;47518;51.776;9.370;2023-02-12T18:11:14;102510.69;;;8.88;86.49
61618;BME280;47518;51.776;9.370;2023-02-12T18:13:39;102512.44;;;8.89;87.06
61618;BME280;47518;51.776;9.370;2023-02-12T18:16:08;102513.31;;;8.77;86.48
61618;BME280;47518;51.776;9.370;2023-02-12T18:18:34;102502.50;;;8.64;87.42
61618;BME280;47518;51.776;9.370;2023-02-12T18:21:00;102509.44;;;8.81;87.38
61618;BME280;47518;51.776;9.370;2023-02-12T18:23:26;102511.38;;;8.79;87.63
61618;BME280;47518;51.776;9.370;2023-02-12T18:25:51;102501.63;;;8.64;86.95
61618;BME280;47518;51.776;9.370;2023-02-12T18:28:16;102505.00;;;8.80;87.57
61618;BME280;47518;51.776;9.370;2023-02-12T18:30:41;102506.06;;;8.77;86.47
61618;BME280;47518;51.776;9.370;2023-02-12T18:33:08;102515.19;;;8.76;87.23
61618;BME280;47518;51.776;9.370;2023-02-12T18:35:34;102504.66;;;8.85;87.12
61618;BME280;47518;51.776;9.370;2023-02-12T18:38:01;102502.38;;;8.78;86.50
61618;BME280;47518;51.776;9.370;2023-02-12T18:40:26;102509.13;;;8.73;86.74
61618;BME280;47518;51.776;9.370;2023-02-12T18:42:52;102503.38;;;8.65;87.93
61618;BME280;47518;51.776;9.370;2023-02-12T18:45:17;102502.47;;;8.77;86.67
61618;BME280;47518;51.776;9.370;2023-02-12T18:47:43;102514.00;;;8.81;87.09
61618;BME280;47518;51.776;9.370;2023-02-12T18:50:09;102515.94;;;8.78;86.42
61618;BME280;47518;51.776;9.370;2023-02-12T18:52:34;102504.41;;;8.88;86.48
61618;BME280;47518;51.776;9.370;2023-02-12T18:55:01;102507.03;;;8.76;87.03
61618;BME280;47518;51.776;9.370;2023-02-12T18:57:26;102504.66;;;8.85;86.41
61618;BME280;47518;51.776;9.370;2023-02-12T18:59:52;102508.56;;;8.81;86.14
61618;BME280;47518;51.776;9.370;2023-02-12T19:02:17;102510.31;;;8.69;87.05